Time;durP1;ratioP1;P1;durP2;ratioP2;P2;SDS_P1;SDS_P2;PMS_P1;PMS_P2;Temp;Humidity;BMP_temperature;BMP_pressure;BME280_temperature;BME280_humidity;BME280_pressure;Samples;Min_cycle;Max_cycle;Signal;HPM_P1;HPM_P2
2023/04/01 00:01:16;;;;;;;4.30;1.90;;;;;;;5.88;100.00;99048.72;6243041;23;20030;-70
2023/04/01 00:03:42;;;;;;;5.32;2.58;;;;;;;5.91;100.00;99045.72;6234581;22;20411;-71
2023/04/01 00:06:15;;;;;;;5.47;1.70;;;;;;;5.96;100.00;99046.03;6237010;22;20024;-71
2023/04/01 00:08:42;;;;;;;6.50;2.13;;;;;;;5.91;100.00;99043.06;6243725;23;20090;-72
2023/04/01 00:11:08;;;;;;;5.55;1.95;;;;;;;5.95;100.00;99045.19;6242831;23;20047;-71
2023/04/01 00:13:35;;;;;;;6.07;2.63;;;;;;;6.03;100.00;99046.16;6244502;23;20016;-73
2023/04/01 00:16:03;;;;;;;7.13;2.40;;;;;;;5.96;100.00;99051.34;6244100;23;20107;-71
2023/04/01 00:18:47;;;;;;;2.67;1.83;;;;;;;5.84;100.00;99047.41;6242778;23;20039;-72
2023/04/01 00:21:14;;;;;;;4.07;2.03;;;;;;;5.84;100.00;99042.91;6243635;23;20460;-71
2023/04/01 00:23:41;;;;;;;7.28;2.53;;;;;;;5.82;100.00;99054.72;6243587;23;20416;-71
2023/04/01 00:26:07;;;;;;;3.78;2.00;;;;;;;5.85;100.00;99046.41;6243699;23;20099;-71
2023/04/01 00:28:35;;;;;;;5.28;1.60;;;;;;;5.84;100.00;99050.06;6244192;23;20326;-71
2023/04/01 00:31:08;;;;;;;4.05;1.90;;;;;;;5.85;100.00;99046.41;6244538;23;20020;-71
2023/04/01 00:33:35;;;;;;;6.93;2.20;;;;;;;5.94;100.00;99040.88;6242414;23;20027;-71
2023/04/01 00:36:21;;;;;;;8.80;2.20;;;;;;;5.82;100.00;99055.53;6243732;23;20023;-71
2023/04/01 00:38:50;;;;;;;7.40;2.20;;;;;;;5.78;100.00;99046.25;6244520;22;20051;-71
2023/04/01 00:41:17;;;;;;;7.43;2.47;;;;;;;5.65;100.00;99037.94;6245957;23;20024;-71
2023/04/01 00:43:47;;;;;;;8.70;3.58;;;;;;;5.65;100.00;99043.28;6241932;23;20026;-71
2023/04/01 00:46:13;;;;;;;9.82;2.55;;;;;;;5.66;100.00;99039.59;6243379;23;20038;-71
2023/04/01 00:48:47;;;;;;;5.55;2.20;;;;;;;5.62;100.00;99033.78;6241614;23;20020;-71
2023/04/01 00:51:18;;;;;;;4.15;2.40;;;;;;;5.61;100.00;99029.47;6242189;23;20034;-71
2023/04/01 00:53:48;;;;;;;4.50;2.30;;;;;;;5.67;100.00;99038.63;6244191;23;20020;-71
2023/04/01 00:56:22;;;;;;;9.68;2.42;;;;;;;5.76;100.00;99034.94;6244479;23;20098;-70
2023/04/01 00:58:54;;;;;;;10.85;2.20;;;;;;;5.77;100.00;99042.75;6241763;23;20350;-69
2023/04/01 01:01:23;;;;;;;13.45;2.83;;;;;;;5.87;100.00;99044.38;6242997;23;20318;-70
2023/04/01 01:03:50;;;;;;;7.95;2.45;;;;;;;5.87;100.00;99044.38;6243037;23;20425;-70
2023/04/01 01:10:12;;;;;;;9.73;2.45;;;;;;;5.79;100.00;99049.72;6243020;23;20485;-70
2023/04/01 01:13:15;;;;;;;9.65;2.90;;;;;;;5.76;100.00;99046.41;6242667;23;20020;-70
2023/04/01 01:15:47;;;;;;;5.53;2.40;;;;;;;5.70;100.00;99040.94;6194586;22;20020;-70
2023/04/01 01:18:22;;;;;;;5.90;1.85;;;;;;;5.77;100.00;99045.41;6245257;22;20050;-70
2023/04/01 01:21:19;;;;;;;7.15;2.05;;;;;;;5.80;100.00;99046.06;6243906;23;20080;-70
2023/04/01 01:24:13;;;;;;;8.82;2.35;;;;;;;5.86;100.00;99042.72;6247377;22;20043;-69
2023/04/01 01:26:58;;;;;;;6.28;1.70;;;;;;;5.90;100.00;99038.72;6247693;23;20016;-71
2023/04/01 01:29:36;;;;;;;7.53;2.65;;;;;;;5.90;100.00;99041.38;6236285;22;20051;-71
2023/04/01 01:32:15;;;;;;;8.93;2.17;;;;;;;5.86;100.00;99050.72;6246891;23;20016;-70
2023/04/01 01:35:15;;;;;;;6.25;1.98;;;;;;;5.86;100.00;99045.38;6245446;23;20026;-70
2023/04/01 01:37:44;;;;;;;4.30;1.67;;;;;;;5.93;100.00;99044.53;6246162;23;20095;-71
2023/04/01 01:40:13;;;;;;;8.07;2.50;;;;;;;5.95;100.00;99049.69;6242916;22;20027;-71
2023/04/01 01:42:45;;;;;;;5.50;1.95;;;;;;;5.99;100.00;99045.69;6243436;23;20024;-70
2023/04/01 01:45:14;;;;;;;8.07;2.08;;;;;;;6.00;100.00;99052.66;6236106;22;20026;-71
2023/04/01 01:47:42;;;;;;;6.82;2.45;;;;;;;5.92;100.00;99052.69;6244131;23;20095;-72
2023/04/01 01:50:09;;;;;;;6.75;2.20;;;;;;;5.93;100.00;99054.34;6244927;23;20030;-71
2023/04/01 01:52:36;;;;;;;11.18;2.38;;;;;;;5.92;100.00;99052.69;6243904;23;20036;-72
2023/04/01 01:55:03;;;;;;;8.98;2.70;;;;;;;5.97;100.00;99053.00;6230841;22;20022;-70
2023/04/01 01:57:34;;;;;;;8.38;2.40;;;;;;;5.97;100.00;99058.31;6265994;22;20020;-71
2023/04/01 02:00:12;;;;;;;5.57;2.17;;;;;;;5.95;100.00;99057.69;6237327;23;20012;-71
2023/04/01 02:02:43;;;;;;;6.25;2.28;;;;;;;5.93;100.00;99051.69;6240784;23;20028;-71
2023/04/01 02:05:15;;;;;;;6.10;2.08;;;;;;;5.92;100.00;99061.50;6239048;23;20414;-72
2023/04/01 02:07:46;;;;;;;7.57;2.00;;;;;;;5.89;100.00;99061.00;6241559;22;20017;-72
2023/04/01 02:10:14;;;;;;;8.10;2.53;;;;;;;5.86;100.00;99058.69;6239766;23;20084;-72
2023/04/01 02:12:44;;;;;;;5.30;2.13;;;;;;;5.89;100.00;99061.00;6240804;23;20027;-72
2023/04/01 02:15:14;;;;;;;9.65;2.30;;;;;;;5.86;100.00;99061.34;6239522;23;20026;-72
2023/04/01 02:17:45;;;;;;;6.40;2.38;;;;;;;5.88;100.00;99059.38;6240707;23;20095;-72
2023/04/01 02:20:19;;;;;;;4.82;2.00;;;;;;;5.88;100.00;99054.03;6238014;23;20027;-71
2023/04/01 02:22:55;;;;;;;5.90;2.45;;;;;;;5.82;100.00;99052.88;6240208;23;20040;-73
2023/04/01 02:25:30;;;;;;;5.50;2.20;;;;;;;5.84;100.00;99058.06;6239812;23;20094;-72
2023/04/01 02:27:58;;;;;;;4.35;2.45;;;;;;;5.87;100.00;99057.69;6240028;23;20471;-72
2023/04/01 02:30:28;;;;;;;10.13;2.38;;;;;;;5.87;100.00;99063.00;6239850;22;20098;-71
2023/04/01 02:32:57;;;;;;;7.20;2.70;;;;;;;5.85;100.00;99065.84;6239525;23;20030;-71
2023/04/01 02:35:24;;;;;;;9.60;2.75;;;;;;;5.79;100.00;99065.69;6238839;23;20412;-72
2023/04/01 02:37:53;;;;;;;6.72;2.33;;;;;;;5.80;100.00;99065.50;6238837;22;20091;-72
2023/04/01 02:40:20;;;;;;;10.02;2.58;;;;;;;5.78;100.00;99070.19;6238973;23;20030;-72
2023/04/01 02:42:47;;;;;;;6.68;2.67;;;;;;;5.73;100.00;99065.38;6239398;22;20019;-72
2023/04/01 02:45:14;;;;;;;5.18;2.40;;;;;;;5.73;100.00;99068.06;6236939;22;20020;-72
2023/04/01 02:47:41;;;;;;;7.82;2.70;;;;;;;5.70;100.00;99062.25;6239369;23;20043;-71
2023/04/01 02:50:08;;;;;;;10.32;2.78;;;;;;;5.71;100.00;99069.22;6237218;22;20023;-71
2023/04/01 02:52:35;;;;;;;10.07;2.90;;;;;;;5.75;100.00;99073.19;6240536;23;20047;-72
2023/04/01 02:55:03;;;;;;;5.93;2.45;;;;;;;5.81;100.00;99077.00;6242128;23;20030;-72
2023/04/01 02:57:30;;;;;;;5.88;2.50;;;;;;;5.81;100.00;99079.69;6242071;23;20334;-71
2023/04/01 02:59:56;;;;;;;6.80;2.70;;;;;;;5.79;100.00;99077.16;6241891;23;20024;-72
2023/04/01 03:02:23;;;;;;;5.50;2.60;;;;;;;5.80;100.00;99080.66;6242123;23;20020;-71
2023/04/01 03:04:49;;;;;;;5.00;2.65;;;;;;;5.84;100.00;99093.47;6241522;23;20044;-72
2023/04/01 03:07:16;;;;;;;8.30;2.90;;;;;;;5.78;100.00;99091.47;6241299;23;20028;-72
2023/04/01 03:09:42;;;;;;;7.75;2.67;;;;;;;5.80;100.00;99083.31;6241281;23;20016;-72
2023/04/01 03:12:09;;;;;;;6.22;3.13;;;;;;;5.72;100.00;99085.00;6241438;23;20024;-72
2023/04/01 03:14:35;;;;;;;10.20;3.17;;;;;;;5.83;100.00;99077.66;6240776;23;20330;-72
2023/04/01 03:17:02;;;;;;;10.77;3.53;;;;;;;5.86;100.00;99082.66;6241814;23;20286;-72
2023/04/01 03:19:28;;;;;;;8.25;3.38;;;;;;;5.87;100.00;99085.16;6242016;23;20020;-72
2023/04/01 03:21:55;;;;;;;8.70;3.35;;;;;;;5.81;100.00;99082.34;6240242;23;20353;-71
2023/04/01 03:24:21;;;;;;;6.32;3.05;;;;;;;5.80;100.00;99078.81;6241621;23;20384;-72
2023/04/01 03:26:48;;;;;;;6.40;3.00;;;;;;;5.88;100.00;99080.66;6240956;23;20024;-72
2023/04/01 03:29:15;;;;;;;8.23;3.10;;;;;;;5.90;100.00;99083.97;6241347;23;20349;-71
2023/04/01 03:31:42;;;;;;;6.82;3.33;;;;;;;5.87;100.00;99087.81;6237165;22;20054;-72
2023/04/01 03:34:09;;;;;;;7.22;2.95;;;;;;;5.81;100.00;99085.81;6240632;23;20040;-72
2023/04/01 03:36:36;;;;;;;6.93;2.97;;;;;;;5.84;100.00;99089.97;6240500;23;20012;-73
2023/04/01 03:39:03;;;;;;;10.57;2.75;;;;;;;5.75;100.00;99102.47;6240057;23;20044;-71
2023/04/01 03:41:30;;;;;;;11.13;3.03;;;;;;;5.84;100.00;99097.97;6241250;23;20024;-71
2023/04/01 03:43:57;;;;;;;7.47;2.70;;;;;;;5.87;100.00;99100.25;6239926;23;20024;-72
2023/04/01 03:46:23;;;;;;;8.48;3.25;;;;;;;5.85;100.00;99107.59;6240062;23;20025;-71
2023/04/01 03:48:50;;;;;;;9.65;2.85;;;;;;;5.82;100.00;99107.94;6241012;23;20103;-70
2023/04/01 03:51:17;;;;;;;10.55;2.95;;;;;;;5.83;100.00;99113.06;6240294;23;20029;-70
2023/04/01 03:53:43;;;;;;;10.57;3.00;;;;;;;5.82;100.00;99110.59;6240665;23;20027;-73
2023/04/01 03:56:10;;;;;;;8.38;2.55;;;;;;;5.85;100.00;99115.59;6240924;23;20030;-71
2023/04/01 03:58:38;;;;;;;6.20;3.00;;;;;;;5.70;100.00;99115.44;6240630;23;20348;-72
2023/04/01 04:01:23;;;;;;;14.02;3.45;;;;;;;5.82;100.00;99115.91;6228953;22;20106;-72
2023/04/01 04:03:50;;;;;;;7.47;3.13;;;;;;;5.84;100.00;99116.59;6240648;23;20341;-72
2023/04/01 04:06:18;;;;;;;12.30;2.95;;;;;;;5.74;100.00;99117.59;6240364;23;20027;-72
2023/04/01 04:08:45;;;;;;;10.15;3.17;;;;;;;5.89;100.00;99124.88;6240811;23;20024;-71
2023/04/01 04:11:11;;;;;;;12.25;3.60;;;;;;;5.91;100.00;99131.72;6239313;23;20020;-74
2023/04/01 04:13:38;;;;;;;7.55;3.08;;;;;;;5.89;100.00;99130.22;6239395;23;20019;-72
2023/04/01 04:16:05;;;;;;;8.10;2.55;;;;;;;5.91;100.00;99128.22;6241585;22;20210;-71
2023/04/01 04:18:31;;;;;;;6.72;3.00;;;;;;;5.79;100.00;99132.22;6241713;23;20020;-71
2023/04/01 04:20:58;;;;;;;7.32;2.75;;;;;;;5.83;100.00;99128.22;6242583;23;20017;-72
2023/04/01 04:23:24;;;;;;;12.18;2.88;;;;;;;5.88;100.00;99128.56;6240997;23;20055;-71
2023/04/01 04:26:03;;;;;;;10.18;3.20;;;;;;;5.85;100.00;99124.41;6242221;23;20103;-72
2023/04/01 04:28:31;;;;;;;9.27;2.67;;;;;;;5.92;100.00;99132.53;6240323;22;20026;-71
2023/04/01 04:30:57;;;;;;;4.85;2.80;;;;;;;5.80;100.00;99137.38;6240232;23;20465;-71
2023/04/01 04:33:24;;;;;;;10.23;3.50;;;;;;;5.84;100.00;99135.22;6240920;23;20020;-71
2023/04/01 04:35:54;;;;;;;8.68;3.13;;;;;;;5.91;100.00;99133.56;6241962;23;20449;-72
2023/04/01 04:38:21;;;;;;;5.88;2.47;;;;;;;5.92;100.00;99137.88;6241461;23;20024;-72
2023/04/01 04:40:48;;;;;;;9.98;3.30;;;;;;;5.84;100.00;99136.06;6187860;23;20099;-72
2023/04/01 04:43:15;;;;;;;12.20;3.58;;;;;;;5.82;100.00;99139.88;6239910;23;20023;-70
2023/04/01 04:45:42;;;;;;;12.02;3.15;;;;;;;5.85;100.00;99139.53;6240994;23;20345;-71
2023/04/01 04:48:10;;;;;;;8.48;2.75;;;;;;;5.87;100.00;99146.38;6241799;23;20024;-71
2023/04/01 04:50:37;;;;;;;9.20;3.83;;;;;;;5.84;100.00;99146.69;6228891;22;20376;-71
2023/04/01 04:53:03;;;;;;;9.63;3.05;;;;;;;5.89;100.00;99147.00;6240177;23;20030;-73
2023/04/01 04:55:30;;;;;;;7.72;2.72;;;;;;;5.88;100.00;99150.69;6241181;23;20356;-71
2023/04/01 04:57:57;;;;;;;12.32;3.20;;;;;;;5.91;100.00;99152.19;6240518;23;20040;-72
2023/04/01 05:00:23;;;;;;;12.10;3.30;;;;;;;5.87;100.00;99149.03;6240378;23;20107;-72
2023/04/01 05:02:50;;;;;;;10.75;3.38;;;;;;;5.89;100.00;99151.50;6240324;23;20400;-71
2023/04/01 05:05:17;;;;;;;14.70;3.17;;;;;;;5.89;100.00;99149.66;6240369;23;20024;-72
2023/04/01 05:07:43;;;;;;;9.75;3.08;;;;;;;5.87;100.00;99150.84;6240144;23;20449;-72
2023/04/01 05:10:10;;;;;;;11.27;2.97;;;;;;;5.87;100.00;99158.81;6241672;23;20103;-72
2023/04/01 05:12:38;;;;;;;9.52;3.58;;;;;;;5.88;100.00;99160.50;6239099;22;20352;-72
2023/04/01 05:15:06;;;;;;;12.48;3.80;;;;;;;5.79;100.00;99157.00;6239652;23;20070;-72
2023/04/01 05:17:32;;;;;;;6.85;3.20;;;;;;;5.74;100.00;99165.50;6237065;22;20472;-72
2023/04/01 05:19:59;;;;;;;7.65;2.95;;;;;;;5.88;100.00;99161.31;6240440;23;20484;-70
2023/04/01 05:22:25;;;;;;;8.13;3.42;;;;;;;5.91;100.00;99166.31;6240200;23;20024;-72
2023/04/01 05:24:52;;;;;;;12.40;3.88;;;;;;;5.94;100.00;99165.13;6240858;23;20027;-70
2023/04/01 05:27:18;;;;;;;11.88;3.50;;;;;;;5.85;100.00;99160.84;6241025;23;20083;-71
2023/04/01 05:29:45;;;;;;;7.80;3.58;;;;;;;5.85;100.00;99160.84;6243058;23;20096;-71
2023/04/01 05:32:12;;;;;;;11.95;3.80;;;;;;;5.93;100.00;99163.47;6244549;23;20024;-69
2023/04/01 05:34:38;;;;;;;9.70;3.35;;;;;;;5.84;100.00;99161.84;6244426;23;20360;-69
2023/04/01 05:37:05;;;;;;;9.88;4.40;;;;;;;5.92;100.00;99161.81;6242483;23;20028;-70
2023/04/01 05:39:31;;;;;;;11.75;4.65;;;;;;;5.88;100.00;99168.47;6243249;23;20034;-71
2023/04/01 05:41:58;;;;;;;17.83;3.83;;;;;;;5.89;100.00;99168.31;6242388;23;20067;-70
2023/04/01 05:44:24;;;;;;;13.27;3.67;;;;;;;5.80;100.00;99168.47;6242120;23;20024;-70
2023/04/01 05:46:51;;;;;;;13.40;4.03;;;;;;;5.79;100.00;99172.97;6242651;23;20392;-69
2023/04/01 05:49:17;;;;;;;15.45;4.30;;;;;;;5.81;100.00;99170.16;6240837;22;20047;-70
2023/04/01 05:51:44;;;;;;;14.70;4.53;;;;;;;5.89;100.00;99178.13;6240905;23;20020;-72
2023/04/01 05:54:10;;;;;;;12.63;4.05;;;;;;;5.76;100.00;99179.44;6242623;23;20102;-70
2023/04/01 05:56:37;;;;;;;14.95;3.78;;;;;;;5.70;100.00;99176.66;6242415;23;20091;-71
2023/04/01 05:59:04;;;;;;;12.52;3.65;;;;;;;5.72;100.00;99178.13;6241213;23;20369;-71
2023/04/01 06:01:30;;;;;;;16.52;4.07;;;;;;;5.65;100.00;99184.28;6241578;23;20028;-71
2023/04/01 06:03:57;;;;;;;13.82;4.20;;;;;;;5.71;100.00;99186.28;6241166;23;20023;-71
2023/04/01 06:06:27;;;;;;;18.10;3.92;;;;;;;5.67;100.00;99183.13;6241193;23;20024;-71
2023/04/01 06:08:56;;;;;;;14.85;4.70;;;;;;;5.64;100.00;99191.44;6241223;23;20086;-71
2023/04/01 06:11:26;;;;;;;15.05;4.82;;;;;;;5.80;100.00;99189.75;6241426;23;20020;-69
2023/04/01 06:14:28;;;;;;;14.65;4.78;;;;;;;5.87;100.00;99196.06;6241298;23;20457;-71
2023/04/01 06:16:54;;;;;;;;;;;;;;;5.79;100.00;99198.75;6241350;23;20024;-70
2023/04/01 06:19:58;;;;;;;15.20;5.00;;;;;;;5.78;100.00;99200.59;6261357;23;19906;-69
2023/04/01 06:23:06;;;;;;;13.77;4.70;;;;;;;5.89;100.00;99204.75;6268258;22;20020;-68
2023/04/01 06:25:42;;;;;;;12.15;4.47;;;;;;;5.82;100.00;99214.38;6267949;23;20063;-69
2023/04/01 06:28:31;;;;;;;13.57;4.57;;;;;;;5.83;100.00;99210.72;6251615;23;20020;-71
2023/04/01 06:31:16;;;;;;;16.73;4.55;;;;;;;5.87;100.00;99214.72;6245074;23;20099;-71
2023/04/01 06:34:01;;;;;;;14.20;4.75;;;;;;;5.94;100.00;99216.56;6243244;23;20091;-71
2023/04/01 06:36:43;;;;;;;9.63;4.80;;;;;;;6.04;100.00;99216.34;6245073;23;20099;-70
2023/04/01 06:39:28;;;;;;;15.70;4.32;;;;;;;6.18;100.00;99214.84;6247894;23;20028;-70
2023/04/01 06:42:29;;;;;;;13.02;3.97;;;;;;;6.07;100.00;99224.00;6239780;22;20024;-71
2023/04/01 06:45:26;;;;;;;13.02;4.65;;;;;;;6.18;100.00;99225.50;6246102;23;20020;-70
2023/04/01 06:48:20;;;;;;;17.30;4.22;;;;;;;6.24;100.00;99223.00;6245450;23;20479;-69
2023/04/01 06:51:16;;;;;;;15.90;4.95;;;;;;;6.36;100.00;99231.50;6242826;22;20023;-70
2023/04/01 06:54:12;;;;;;;18.35;4.63;;;;;;;6.30;100.00;99223.38;6246358;22;20016;-70
2023/04/01 06:56:42;;;;;;;12.23;3.92;;;;;;;6.38;100.00;99226.84;6244919;23;20016;-70
2023/04/01 06:59:20;;;;;;;14.93;3.78;;;;;;;6.48;100.00;99235.47;6247605;23;20020;-72
2023/04/01 07:02:12;;;;;;;11.90;4.70;;;;;;;6.49;100.00;99230.97;6247241;23;20016;-69
2023/04/01 07:04:42;;;;;;;;;;;;;;;6.56;100.00;99239.94;6247532;23;20135;-69
2023/04/01 07:07:21;;;;;;;13.32;3.45;;;;;;;6.79;100.00;99242.72;6247878;23;19919;-70
2023/04/01 07:09:52;;;;;;;6.75;3.08;;;;;;;6.92;100.00;99240.34;6240819;22;20079;-70
2023/04/01 07:12:31;;;;;;;10.57;3.70;;;;;;;7.08;100.00;99244.75;6263020;22;20020;-70
2023/04/01 07:15:05;;;;;;;10.07;2.80;;;;;;;7.18;100.00;99242.69;6242791;22;20024;-71
2023/04/01 07:17:36;;;;;;;6.55;2.50;;;;;;;7.21;100.00;99243.38;6261509;22;20019;-72
2023/04/01 07:20:20;;;;;;;10.73;3.10;;;;;;;7.31;100.00;99252.81;6246979;23;20028;-71
2023/04/01 07:22:54;;;;;;;9.73;3.03;;;;;;;7.40;100.00;99251.78;6246434;23;20023;-72
2023/04/01 07:25:25;;;;;;;12.63;2.85;;;;;;;7.42;100.00;99255.09;6245869;23;20022;-72
2023/04/01 07:28:05;;;;;;;6.23;2.43;;;;;;;7.66;100.00;99254.09;6245182;23;20040;-71
2023/04/01 07:31:16;;;;;;;6.18;1.92;;;;;;;7.79;100.00;99252.69;6245275;23;20016;-71
2023/04/01 07:34:12;;;;;;;7.05;2.33;;;;;;;7.88;100.00;99262.31;6242099;22;20012;-71
2023/04/01 07:36:44;;;;;;;11.52;2.80;;;;;;;7.80;100.00;99265.03;6244414;23;20100;-71
2023/04/01 07:39:26;;;;;;;9.10;2.30;;;;;;;7.76;100.00;99263.72;6244626;22;20423;-70
2023/04/01 07:42:20;;;;;;;6.47;2.08;;;;;;;7.85;100.00;99257.34;6243513;23;20386;-70
2023/04/01 07:44:54;;;;;;;12.73;2.70;;;;;;;7.76;100.00;99261.88;6243080;22;20417;-70
2023/04/01 07:47:49;;;;;;;6.30;2.28;;;;;;;7.89;100.00;99267.50;6240843;23;20356;-73
2023/04/01 07:50:41;;;;;;;6.03;1.73;;;;;;;8.08;100.00;99265.34;6243003;23;20042;-71
2023/04/01 07:53:14;;;;;;;8.85;2.45;;;;;;;8.30;100.00;99267.16;6242717;22;20020;-71
2023/04/01 07:55:59;;;;;;;10.93;2.83;;;;;;;8.42;100.00;99272.88;6243785;23;20107;-70
2023/04/01 08:20:28;;;;;;;6.68;1.95;;;;;;;8.58;100.00;99286.09;6249537;22;20014;-71
2023/04/01 08:23:04;;;;;;;8.00;2.00;;;;;;;8.40;100.00;99288.28;6268805;22;20012;-72
2023/04/01 08:25:33;;;;;;;6.45;2.25;;;;;;;7.97;100.00;99287.97;6269452;22;20016;-70
2023/04/01 08:28:15;;;;;;;8.35;2.45;;;;;;;7.95;100.00;99287.31;6268589;22;20015;-70
2023/04/01 08:30:57;;;;;;;7.57;2.40;;;;;;;7.97;100.00;99298.63;6267341;22;20016;-71
2023/04/01 08:33:27;;;;;;;10.13;2.17;;;;;;;7.94;100.00;99298.16;6268639;22;20063;-70
2023/04/01 08:35:59;;;;;;;7.50;2.22;;;;;;;7.83;100.00;99294.03;6268957;22;20004;-71
2023/04/01 08:38:44;;;;;;;7.22;2.50;;;;;;;7.73;100.00;99298.78;6267883;22;20007;-72
2023/04/01 08:41:39;;;;;;;11.13;2.17;;;;;;;7.88;100.00;99305.03;6259740;22;20008;-71
2023/04/01 08:44:43;;;;;;;6.60;1.83;;;;;;;7.88;100.00;99297.88;6269074;22;20043;-72
2023/04/01 08:47:38;;;;;;;5.60;1.58;;;;;;;7.86;100.00;99304.41;6268869;22;20005;-71
2023/04/01 08:50:33;;;;;;;9.30;1.55;;;;;;;7.94;100.00;99300.84;6267567;22;20027;-70
2023/04/01 08:53:45;;;;;;;7.55;1.83;;;;;;;8.01;100.00;99312.47;6255646;22;20034;-71
2023/04/01 08:56:20;;;;;;;3.78;1.70;;;;;;;8.00;100.00;99308.97;6269895;22;20009;-70
2023/04/01 08:59:27;;;;;;;10.07;2.40;;;;;;;7.96;100.00;99313.00;6269738;22;20019;-71
2023/04/01 09:02:26;;;;;;;9.40;1.98;;;;;;;7.57;100.00;99313.91;6268243;22;20012;-70
2023/04/01 09:05:32;;;;;;;5.22;1.65;;;;;;;7.49;100.00;99313.09;6265954;22;20055;-71
2023/04/01 09:08:44;;;;;;;3.97;2.58;;;;;;;7.21;100.00;99318.06;6147745;23;20073;-71
2023/04/01 09:11:28;;;;;;;3.95;2.90;;;;;;;6.84;100.00;99314.16;6137735;23;20064;-71
2023/04/01 09:14:03;;;;;;;5.80;3.28;;;;;;;6.61;100.00;99322.06;6172898;22;20031;-69
2023/04/01 13:55:49;;;;;;;19.87;14.70;;;;;;;3.49;100.00;99596.41;6197375;22;20042;31
2023/04/01 13:58:36;;;;;;;20.38;16.40;;;;;;;3.61;100.00;99598.75;6182336;23;20213;-68
2023/04/01 14:01:12;;;;;;;22.63;17.30;;;;;;;3.61;100.00;99603.22;6180802;23;20029;-69
2023/04/01 14:04:08;;;;;;;19.77;14.25;;;;;;;3.41;100.00;99601.56;6182024;23;20382;-70
2023/04/01 14:07:14;;;;;;;18.27;15.50;;;;;;;3.38;100.00;99613.31;6174865;23;20032;-69
2023/04/01 14:10:13;;;;;;;22.23;17.52;;;;;;;3.49;100.00;99617.63;6160915;23;20466;-70
2023/04/01 14:13:09;;;;;;;21.98;17.38;;;;;;;3.39;100.00;99618.47;6181368;23;20104;-69
2023/04/01 14:15:45;;;;;;;19.65;16.88;;;;;;;3.52;100.00;99627.94;6168533;23;20100;-69
2023/04/01 14:18:30;;;;;;;17.85;15.18;;;;;;;3.47;100.00;99628.34;6180825;23;20025;-69
2023/04/01 14:20:59;;;;;;;18.05;15.27;;;;;;;3.47;100.00;99633.66;6181475;23;20100;-69
2023/04/01 14:23:46;;;;;;;17.33;14.15;;;;;;;3.35;100.00;99646.22;6181750;23;20100;-68
2023/04/01 14:26:41;;;;;;;15.90;13.50;;;;;;;3.13;100.00;99646.50;6166789;23;20455;-69
2023/04/01 14:29:25;;;;;;;18.75;15.15;;;;;;;3.27;100.00;99654.03;6181662;23;20055;-70
2023/04/01 14:32:07;;;;;;;17.92;14.73;;;;;;;3.23;100.00;99657.94;6182843;23;20418;-70
2023/04/01 14:35:05;;;;;;;22.50;15.95;;;;;;;3.23;100.00;99655.28;6180141;23;20354;-70
2023/04/01 14:37:55;;;;;;;17.35;14.00;;;;;;;3.20;100.00;99652.06;6181078;23;20032;-69
2023/04/01 14:40:34;;;;;;;18.48;14.02;;;;;;;3.08;100.00;99661.97;6179079;23;20041;-70
2023/04/01 14:43:11;;;;;;;17.88;13.85;;;;;;;3.10;100.00;99665.31;6181202;23;20029;-70
2023/04/01 14:46:08;;;;;;;18.92;12.80;;;;;;;3.00;100.00;99673.28;6170406;23;20116;-70
2023/04/01 14:48:57;;;;;;;14.10;11.60;;;;;;;2.99;100.00;99681.34;6179985;23;20020;-69
2023/04/01 14:51:39;;;;;;;14.25;12.45;;;;;;;3.09;100.00;99677.72;6178893;23;20096;-69
2023/04/01 14:54:13;;;;;;;;;;;;;;;3.10;100.00;99683.88;6181307;23;20024;-70
2023/04/01 14:56:44;;;;;;;14.45;11.93;;;;;;;3.09;100.00;99690.16;6179543;23;20355;-68
2023/04/01 14:59:25;;;;;;;15.65;10.85;;;;;;;2.94;100.00;99694.19;6182536;23;20359;-70
2023/04/01 15:02:02;;;;;;;13.02;11.32;;;;;;;3.05;100.00;99696.72;6182454;23;20031;-70
2023/04/01 15:04:43;;;;;;;13.77;10.55;;;;;;;2.95;100.00;99695.84;6165531;23;20397;-70
2023/04/01 15:07:43;;;;;;;15.05;11.88;;;;;;;3.05;100.00;99702.84;6182179;23;20112;-69
2023/04/01 15:10:19;;;;;;;13.57;11.48;;;;;;;3.00;100.00;99696.28;6181284;23;20099;-69
2023/04/01 15:13:04;;;;;;;13.85;11.38;;;;;;;2.99;100.00;99705.19;6181174;23;20025;-70
2023/04/01 15:15:50;;;;;;;14.23;10.77;;;;;;;3.07;100.00;99710.66;6181274;23;20067;-69
2023/04/01 15:18:54;;;;;;;16.92;11.25;;;;;;;2.99;100.00;99713.13;6181900;23;20044;-70
2023/04/01 15:21:33;;;;;;;14.98;10.00;;;;;;;2.96;100.00;99721.34;6180607;23;20040;-70
2023/04/01 15:24:14;;;;;;;11.88;10.55;;;;;;;2.95;100.00;99720.53;6181111;23;20116;-69
2023/04/01 15:27:13;;;;;;;15.07;12.05;;;;;;;2.96;100.00;99729.31;6181436;23;20041;-69
2023/04/01 15:30:16;;;;;;;15.05;12.02;;;;;;;2.98;100.00;99728.19;6131289;23;20331;-69
2023/04/01 15:32:45;;;;;;;15.05;10.75;;;;;;;2.83;100.00;99734.88;6180529;23;20117;-70
2023/04/01 15:35:52;;;;;;;17.05;12.30;;;;;;;2.90;100.00;99744.78;6180880;23;20029;-70
2023/04/01 15:38:36;;;;;;;13.35;10.07;;;;;;;2.87;100.00;99742.41;6181474;23;20021;-70
2023/04/01 15:41:15;;;;;;;16.45;12.07;;;;;;;2.97;100.00;99746.91;6181048;23;20049;-70
2023/04/01 15:43:48;;;;;;;13.50;10.38;;;;;;;2.72;100.00;99743.75;6180637;23;20021;-69
2023/04/01 15:46:41;;;;;;;14.82;11.35;;;;;;;2.91;100.00;99762.34;6181360;23;20021;-69
2023/04/01 15:49:17;;;;;;;15.15;11.00;;;;;;;3.04;100.00;99753.34;6180525;23;20067;-70
2023/04/01 15:52:05;;;;;;;16.85;11.07;;;;;;;3.03;100.00;99763.09;6182009;23;20576;-70
2023/04/01 15:55:05;;;;;;;14.27;10.18;;;;;;;2.99;100.00;99774.91;6176452;23;20024;-70
2023/04/01 15:57:52;;;;;;;13.38;8.60;;;;;;;2.85;100.00;99775.28;6180020;23;20080;-70
2023/04/01 16:00:26;;;;;;;11.63;7.78;;;;;;;2.85;100.00;99781.41;6180226;23;20029;-69
2023/04/01 16:03:27;;;;;;;11.63;8.13;;;;;;;2.98;100.00;99778.53;6175234;23;20052;-70
2023/04/01 16:06:08;;;;;;;7.03;4.95;;;;;;;3.01;100.00;99774.78;6179435;23;20340;-70
2023/04/01 16:08:46;;;;;;;8.20;6.82;;;;;;;2.90;100.00;99779.22;6180962;23;20053;-70
2023/04/01 16:11:32;;;;;;;9.70;6.55;;;;;;;2.84;100.00;99795.66;6180301;23;20036;-70
2023/04/01 16:14:12;;;;;;;13.85;7.53;;;;;;;2.90;100.00;99794.28;6178174;23;20024;-70
2023/04/01 16:16:46;;;;;;;9.70;7.72;;;;;;;2.95;100.00;99804.47;6180099;23;20025;-70
2023/04/01 16:19:31;;;;;;;9.90;8.32;;;;;;;2.83;100.00;99793.16;6180219;23;20089;-70
2023/04/01 16:22:26;;;;;;;12.38;8.50;;;;;;;2.74;100.00;99800.06;6181086;23;20078;-70
2023/04/01 16:25:24;;;;;;;11.90;8.73;;;;;;;2.62;100.00;99806.44;6171193;23;20407;-70
2023/04/01 16:28:16;;;;;;;12.75;9.40;;;;;;;2.56;100.00;99815.72;6178448;23;20021;-70
2023/04/01 16:30:55;;;;;;;13.23;9.05;;;;;;;2.60;100.00;99824.25;6180525;23;20332;-70
2023/04/01 16:33:35;;;;;;;15.27;8.90;;;;;;;2.52;100.00;99824.91;6180279;23;20120;-70
2023/04/01 16:36:11;;;;;;;9.82;7.80;;;;;;;2.46;100.00;99827.22;6180660;23;20021;-69
2023/04/01 16:39:07;;;;;;;11.90;8.70;;;;;;;2.43;100.00;99829.16;6179261;23;20017;-70
2023/04/01 16:41:41;;;;;;;13.15;8.70;;;;;;;2.37;100.00;99834.13;6179708;23;20016;-70
2023/04/01 16:44:17;;;;;;;13.93;8.57;;;;;;;2.42;100.00;99837.25;6180529;23;20049;-71
2023/04/01 16:46:49;;;;;;;11.63;7.80;;;;;;;2.34;100.00;99844.97;6178092;23;20116;-70
2023/04/01 16:49:49;;;;;;;9.88;7.80;;;;;;;2.07;100.00;99850.78;6178944;23;20024;-70
2023/04/01 21:07:54;;;;;;;23.38;10.52;;;;;;;-0.33;100.00;100307.75;6227184;22;20154;-69
2023/04/01 21:10:35;;;;;;;14.07;9.25;;;;;;;-0.33;100.00;100318.28;6240251;23;20103;-68
2023/04/01 21:13:19;;;;;;;20.60;9.77;;;;;;;-0.38;100.00;100317.75;6239988;23;20449;-70
2023/04/01 21:16:08;;;;;;;17.23;9.38;;;;;;;-0.55;100.00;100321.47;6240380;23;20016;-69
2023/04/01 21:18:55;;;;;;;16.75;9.25;;;;;;;-0.46;100.00;100321.72;6240513;23;20020;-70
2023/04/01 21:21:43;;;;;;;19.20;8.73;;;;;;;-0.44;100.00;100337.44;6240385;23;20016;-68
2023/04/01 21:24:12;;;;;;;19.55;7.68;;;;;;;-0.42;100.00;100341.66;6239690;23;20038;-69
2023/04/01 21:27:08;;;;;;;17.02;8.63;;;;;;;-0.42;100.00;100346.94;6240721;23;22227;-70
2023/04/01 21:29:56;;;;;;;15.57;7.80;;;;;;;-0.51;100.00;100349.31;6222663;22;20016;-69
2023/04/01 21:32:54;;;;;;;17.73;7.78;;;;;;;-0.55;100.00;100350.47;6240293;23;20107;-68
2023/04/01 21:35:30;;;;;;;16.05;8.02;;;;;;;-0.50;100.00;100358.94;6238681;23;20094;-69